Time;durP1;ratioP1;P1;durP2;ratioP2;P2;SDS_P1;SDS_P2;PMS_P1;PMS_P2;Temp;Humidity;BMP_temperature;BMP_pressure;BME280_temperature;BME280_humidity;BME280_pressure;Samples;Min_cycle;Max_cycle;Signal;HPM_P1;HPM_P2
2022/10/09 00:00:18;;;;;;;16.58;5.88;;;9.10;99.90;;;;;;4942154;28;20102;-76
2022/10/09 00:02:43;;;;;;;16.13;5.90;;;9.00;99.90;;;;;;4944027;28;20047;-79
2022/10/09 00:05:09;;;;;;;14.80;6.45;;;9.00;99.90;;;;;;4960417;28;20050;-76
2022/10/09 00:07:34;;;;;;;16.85;6.20;;;9.00;99.90;;;;;;4945195;28;20102;-78
2022/10/09 00:10:00;;;;;;;18.25;5.80;;;8.90;99.90;;;;;;4943987;28;20070;-75
2022/10/09 00:12:26;;;;;;;13.38;5.80;;;8.90;99.90;;;;;;4928638;28;22173;-77
2022/10/09 00:14:51;;;;;;;20.45;6.57;;;8.80;99.90;;;;;;4942610;28;20083;-77
2022/10/09 00:17:17;;;;;;;16.08;6.07;;;8.90;99.90;;;;;;4928587;29;20040;-78
2022/10/09 00:19:42;;;;;;;14.40;5.93;;;8.90;99.90;;;;;;4927358;28;20229;-76
2022/10/09 00:22:08;;;;;;;15.85;6.28;;;8.80;99.90;;;;;;4944629;28;20050;-76
2022/10/09 00:24:33;;;;;;;16.40;6.22;;;8.90;99.90;;;;;;4946127;28;20406;-76
2022/10/09 00:26:59;;;;;;;19.02;6.35;;;8.90;99.90;;;;;;4930928;28;20047;-75
2022/10/09 00:29:24;;;;;;;11.70;5.72;;;8.90;99.90;;;;;;4932642;28;20070;-75
2022/10/09 00:31:50;;;;;;;13.63;5.75;;;8.80;99.90;;;;;;4923032;28;20406;-76
2022/10/09 00:34:15;;;;;;;19.30;6.80;;;8.80;99.90;;;;;;4946971;28;20043;-77
2022/10/09 00:36:41;;;;;;;17.02;6.50;;;8.80;99.90;;;;;;4943772;28;20050;-81
2022/10/09 00:39:07;;;;;;;12.93;6.05;;;8.80;99.90;;;;;;4946542;28;20495;-76
2022/10/09 00:41:33;;;;;;;15.07;6.43;;;8.80;99.90;;;;;;4940991;28;20516;-76
2022/10/09 00:44:01;;;;;;;13.00;5.78;;;8.80;99.90;;;;;;4936986;28;20568;-79
2022/10/09 00:46:33;;;;;;;21.23;6.65;;;8.80;99.90;;;;;;4941918;28;21806;-78
2022/10/09 00:49:10;;;;;;;13.63;6.15;;;8.70;99.90;;;;;;4942962;28;20066;-78
2022/10/09 00:51:36;;;;;;;17.15;6.28;;;8.70;99.90;;;;;;4946698;28;20053;-76
2022/10/09 00:54:06;;;;;;;14.35;6.00;;;8.70;99.90;;;;;;4945064;28;20043;-78
2022/10/09 00:56:32;;;;;;;14.30;5.70;;;8.70;99.90;;;;;;4943053;28;20046;-78
2022/10/09 00:58:59;;;;;;;13.52;5.47;;;8.60;99.90;;;;;;4945388;28;20126;-77
2022/10/09 01:01:24;;;;;;;12.18;5.32;;;8.60;99.90;;;;;;4945081;28;20050;-77
2022/10/09 01:03:50;;;;;;;9.63;5.28;;;8.60;99.90;;;;;;4944281;28;20129;-77
2022/10/09 01:06:43;;;;;;;11.35;5.50;;;8.60;99.90;;;;;;4945668;28;20383;-77
2022/10/09 01:09:16;;;;;;;10.20;5.05;;;8.50;99.90;;;;;;4946007;28;20047;-77
2022/10/09 01:11:55;;;;;;;12.63;6.10;;;8.50;99.90;;;;;;4927024;28;20055;-76
2022/10/09 01:14:27;;;;;;;11.45;5.13;;;8.50;99.90;;;;;;4945886;28;20039;-78
2022/10/09 01:17:38;;;;;;;7.60;4.38;;;8.40;99.90;;;;;;4944466;28;20388;-80
2022/10/09 01:20:33;;;;;;;10.68;4.50;;;8.40;99.90;;;;;;4940148;28;20039;-77
2022/10/09 01:22:58;;;;;;;8.45;5.43;;;8.40;99.90;;;;;;4943887;28;20068;-76
2022/10/09 01:25:52;;;;;;;7.13;5.10;;;8.30;99.90;;;;;;4945661;28;20661;-76
2022/10/09 01:28:22;;;;;;;9.77;5.10;;;8.20;99.90;;;;;;4938512;28;20062;-76
2022/10/09 01:30:48;;;;;;;11.93;5.07;;;8.20;99.90;;;;;;4941649;28;20047;-76
2022/10/09 01:33:15;;;;;;;12.02;4.85;;;8.20;99.90;;;;;;4926788;28;20147;-78
2022/10/09 01:35:43;;;;;;;10.63;5.57;;;8.20;99.90;;;;;;4939309;28;20040;-76
2022/10/09 01:38:09;;;;;;;9.95;5.15;;;8.10;99.90;;;;;;4940020;28;20098;-77
2022/10/09 01:40:35;;;;;;;10.98;5.00;;;8.10;99.90;;;;;;4939507;28;20043;-76
2022/10/09 01:43:02;;;;;;;9.27;5.30;;;8.10;99.90;;;;;;4944756;28;20487;-77
2022/10/09 01:45:40;;;;;;;10.10;4.97;;;8.10;99.90;;;;;;4934415;28;20589;-78
2022/10/09 01:48:11;;;;;;;10.70;5.25;;;8.10;99.90;;;;;;4930279;29;20411;-79
2022/10/09 01:50:42;;;;;;;11.60;5.75;;;8.00;99.90;;;;;;4929345;28;20098;-82
2022/10/09 01:53:12;;;;;;;11.38;5.18;;;8.00;99.90;;;;;;4947128;28;20047;-79
2022/10/09 01:55:49;;;;;;;11.05;4.75;;;8.00;99.90;;;;;;4951082;28;20078;-78
2022/10/09 01:58:32;;;;;;;9.90;5.10;;;8.00;99.90;;;;;;4946654;28;20040;-78
2022/10/09 02:01:19;;;;;;;8.07;4.60;;;8.00;99.90;;;;;;4946130;28;20047;-76
2022/10/09 02:03:48;;;;;;;11.52;5.10;;;7.90;99.90;;;;;;4950211;28;20062;-75
2022/10/09 02:06:16;;;;;;;10.40;4.80;;;7.90;99.90;;;;;;4945872;28;20057;-78
2022/10/09 02:08:43;;;;;;;11.00;4.70;;;7.90;99.90;;;;;;4931621;28;20621;-78
2022/10/09 02:11:10;;;;;;;7.30;4.70;;;7.90;99.90;;;;;;4945535;28;20090;-78
2022/10/09 02:13:37;;;;;;;8.73;4.72;;;7.90;99.90;;;;;;4948008;28;20039;-78
2022/10/09 02:16:11;;;;;;;7.65;3.70;;;7.80;99.90;;;;;;4945187;28;20075;-78
2022/10/09 02:18:42;;;;;;;8.55;4.22;;;7.80;99.90;;;;;;4946949;28;21139;-78
2022/10/09 02:21:27;;;;;;;7.55;4.47;;;7.80;99.90;;;;;;4940531;28;20043;-76
2022/10/09 02:23:56;;;;;;;15.15;3.17;;;7.80;99.90;;;;;;4928385;28;20508;-76
2022/10/09 02:26:22;;;;;;;4.90;2.90;;;7.70;99.90;;;;;;4943636;28;20039;-76
2022/10/09 02:28:48;;;;;;;10.45;3.25;;;7.70;99.90;;;;;;4944889;28;20055;-76
2022/10/09 02:31:21;;;;;;;6.47;3.47;;;7.60;99.90;;;;;;4942581;28;20051;-76
2022/10/09 02:33:57;;;;;;;9.23;3.63;;;7.60;99.90;;;;;;4943994;28;20086;-77
2022/10/09 02:36:23;;;;;;;7.72;3.80;;;7.60;99.90;;;;;;4944321;28;20054;-76
2022/10/09 02:38:48;;;;;;;8.73;4.40;;;7.60;99.90;;;;;;4932936;28;20047;-79
2022/10/09 02:41:14;;;;;;;10.55;4.30;;;7.60;99.90;;;;;;4944733;28;20490;-77
2022/10/09 02:43:40;;;;;;;11.80;4.07;;;7.60;99.90;;;;;;4946259;28;20130;-75
2022/10/09 02:46:05;;;;;;;8.10;3.85;;;7.50;99.90;;;;;;4946582;28;20109;-76
2022/10/09 02:48:31;;;;;;;8.32;4.35;;;7.50;99.90;;;;;;4946222;28;20460;-78
2022/10/09 02:50:56;;;;;;;11.20;4.05;;;7.50;99.90;;;;;;4927054;28;20050;-78
2022/10/09 02:53:22;;;;;;;7.13;4.28;;;7.50;99.90;;;;;;4948225;28;20046;-78
2022/10/09 02:55:47;;;;;;;9.45;4.03;;;7.50;99.90;;;;;;4945262;28;20138;-79
2022/10/09 02:58:13;;;;;;;8.35;4.38;;;7.50;99.90;;;;;;4947240;28;20035;-76
2022/10/09 03:00:39;;;;;;;7.00;4.07;;;7.50;99.90;;;;;;4946118;28;20047;-78
2022/10/09 03:03:05;;;;;;;8.77;4.15;;;7.40;99.90;;;;;;4946342;28;22237;-76
2022/10/09 03:05:30;;;;;;;8.35;4.18;;;7.40;99.90;;;;;;4943808;28;20043;-76
2022/10/09 03:07:57;;;;;;;10.43;4.25;;;7.40;99.90;;;;;;4944350;28;20057;-77
2022/10/09 03:10:23;;;;;;;9.35;4.50;;;7.30;99.90;;;;;;4946358;28;20062;-77
2022/10/09 03:12:48;;;;;;;6.68;4.30;;;7.30;99.90;;;;;;4929924;29;20035;-77
2022/10/09 03:15:15;;;;;;;6.10;3.40;;;7.30;99.90;;;;;;4926440;28;21345;-76
2022/10/09 03:17:40;;;;;;;5.13;2.92;;;7.30;99.90;;;;;;4945908;28;20051;-76
2022/10/09 03:20:06;;;;;;;8.70;3.85;;;7.30;99.90;;;;;;4945496;28;20399;-80
2022/10/09 03:22:32;;;;;;;4.25;2.35;;;7.20;99.90;;;;;;4945150;28;20110;-76
2022/10/09 03:24:58;;;;;;;5.35;2.88;;;7.20;99.90;;;;;;4930660;28;20470;-76
2022/10/09 03:27:23;;;;;;;8.63;3.50;;;7.20;99.90;;;;;;4946065;28;20069;-74
2022/10/09 03:29:49;;;;;;;8.35;3.75;;;7.10;99.90;;;;;;4941948;28;20513;-77
2022/10/09 03:32:14;;;;;;;9.00;4.25;;;7.10;99.90;;;;;;4947372;28;20195;-78
2022/10/09 03:34:40;;;;;;;6.55;3.60;;;7.10;99.90;;;;;;4931163;28;20055;-77
2022/10/09 03:37:06;;;;;;;8.73;3.72;;;7.10;99.90;;;;;;4943037;28;20474;-77
2022/10/09 03:39:31;;;;;;;4.95;3.88;;;7.10;99.90;;;;;;4941898;28;20051;-75
2022/10/09 03:41:57;;;;;;;8.65;4.07;;;7.20;99.90;;;;;;4938789;28;20082;-79
2022/10/09 03:44:22;;;;;;;6.25;2.92;;;7.10;99.90;;;;;;4927011;28;20106;-77
2022/10/09 03:46:48;;;;;;;3.47;2.13;;;7.10;99.90;;;;;;4942660;28;20047;-78
2022/10/09 03:49:14;;;;;;;2.13;1.55;;;7.00;99.90;;;;;;4926917;29;20066;-76
2022/10/09 03:51:40;;;;;;;5.07;3.00;;;7.00;99.90;;;;;;4943210;28;20051;-78
2022/10/09 03:54:05;;;;;;;4.88;3.20;;;7.00;99.90;;;;;;4942280;28;20069;-78
2022/10/09 03:56:31;;;;;;;8.18;3.38;;;6.90;99.90;;;;;;4943016;28;20039;-77
2022/10/09 03:58:56;;;;;;;4.78;3.28;;;6.90;99.90;;;;;;4925335;28;20043;-77
2022/10/09 04:01:22;;;;;;;7.50;3.97;;;6.90;99.90;;;;;;4942212;28;20035;-78
2022/10/09 04:03:47;;;;;;;6.50;3.67;;;6.90;99.90;;;;;;4940436;28;20050;-76
2022/10/09 04:06:14;;;;;;;2.88;1.50;;;6.90;99.90;;;;;;4925693;28;20117;-79
2022/10/09 04:08:39;;;;;;;2.88;1.60;;;6.90;99.90;;;;;;4940909;28;20051;-76
2022/10/09 04:11:05;;;;;;;1.70;1.30;;;6.80;99.90;;;;;;4941804;28;20647;-77
2022/10/09 04:13:30;;;;;;;9.15;2.10;;;6.80;99.90;;;;;;4940380;28;20083;-76
2022/10/09 04:15:56;;;;;;;2.42;1.40;;;6.70;99.90;;;;;;4942113;28;20054;-78
2022/10/09 04:18:22;;;;;;;4.35;1.08;;;6.60;99.90;;;;;;4942915;28;20044;-78
2022/10/09 04:20:50;;;;;;;1.10;0.93;;;6.50;99.90;;;;;;4944921;28;20625;-78
2022/10/09 04:23:16;;;;;;;4.25;2.03;;;6.50;99.90;;;;;;4944528;28;20469;-77
2022/10/09 04:25:41;;;;;;;4.93;2.50;;;6.40;99.90;;;;;;4945362;28;20049;-77
2022/10/09 04:28:07;;;;;;;4.78;2.85;;;6.40;99.90;;;;;;4943707;28;20039;-78
2022/10/09 04:30:33;;;;;;;4.65;2.58;;;6.40;99.90;;;;;;4941846;28;20082;-76
2022/10/09 04:32:58;;;;;;;2.58;2.17;;;6.40;99.90;;;;;;4943445;28;20043;-76
2022/10/09 04:35:24;;;;;;;3.38;2.30;;;6.30;99.90;;;;;;4944324;28;20043;-77
2022/10/09 04:37:49;;;;;;;4.63;2.80;;;6.30;99.90;;;;;;4946380;28;20070;-78
2022/10/09 04:40:15;;;;;;;6.18;3.38;;;6.30;99.90;;;;;;4941771;28;20047;-79
2022/10/09 04:42:40;;;;;;;5.03;3.30;;;6.30;99.90;;;;;;4942740;28;20070;-76
2022/10/09 04:45:06;;;;;;;5.95;3.78;;;6.30;99.90;;;;;;4928918;29;20417;-76
2022/10/09 04:47:32;;;;;;;6.32;3.22;;;6.40;99.90;;;;;;4925323;28;20039;-77
2022/10/09 04:49:58;;;;;;;9.02;3.38;;;6.40;99.90;;;;;;4940547;28;20048;-76
2022/10/09 04:52:24;;;;;;;5.50;2.60;;;6.40;99.90;;;;;;4941477;28;20217;-79
2022/10/09 04:54:50;;;;;;;2.22;1.35;;;6.40;99.90;;;;;;4945327;28;20043;-77
2022/10/09 04:57:15;;;;;;;1.65;1.48;;;6.40;99.90;;;;;;4942387;28;20105;-76
2022/10/09 04:59:41;;;;;;;4.40;2.60;;;6.30;99.90;;;;;;4941141;28;20051;-76
2022/10/09 05:02:07;;;;;;;2.70;1.58;;;6.30;99.90;;;;;;4939411;28;20135;-76
2022/10/09 05:04:32;;;;;;;3.03;1.90;;;6.20;99.90;;;;;;4942969;28;20051;-76
2022/10/09 05:06:58;;;;;;;2.58;1.45;;;6.20;99.90;;;;;;4939433;28;20059;-77
2022/10/09 05:09:23;;;;;;;5.55;2.80;;;6.20;99.90;;;;;;4943945;28;20498;-77
2022/10/09 05:11:49;;;;;;;1.35;1.08;;;6.10;99.90;;;;;;4943077;28;20522;-78
2022/10/09 05:14:14;;;;;;;1.52;1.35;;;6.10;99.90;;;;;;4947106;28;20043;-78
2022/10/09 05:16:40;;;;;;;3.22;1.77;;;6.00;99.90;;;;;;4941059;28;20665;-76
2022/10/09 05:19:05;;;;;;;2.08;1.85;;;6.00;99.90;;;;;;4944693;28;20410;-76
2022/10/09 05:21:31;;;;;;;3.58;2.00;;;6.00;99.90;;;;;;4948440;28;20043;-77
2022/10/09 05:23:57;;;;;;;4.07;1.80;;;6.00;99.90;;;;;;4946564;28;20101;-77
2022/10/09 05:26:24;;;;;;;1.33;1.23;;;6.00;99.90;;;;;;4948252;28;20457;-77
2022/10/09 05:28:50;;;;;;;1.58;1.20;;;6.00;99.90;;;;;;4947646;28;20047;-78
2022/10/09 05:31:27;;;;;;;1.80;1.30;;;5.90;99.90;;;;;;4951283;28;20171;-77
2022/10/09 05:33:54;;;;;;;2.78;2.10;;;5.80;99.90;;;;;;4939452;28;20054;-75
2022/10/09 05:36:20;;;;;;;2.80;2.10;;;5.80;99.90;;;;;;4928407;28;20055;-77
2022/10/09 05:38:46;;;;;;;2.45;2.25;;;5.80;99.90;;;;;;4946335;28;20050;-77
2022/10/09 05:41:14;;;;;;;3.00;2.70;;;5.80;99.90;;;;;;4942437;28;20045;-78
2022/10/09 05:43:42;;;;;;;3.25;2.50;;;5.80;99.90;;;;;;4943207;28;20052;-78
2022/10/09 05:46:17;;;;;;;3.65;2.28;;;5.80;99.90;;;;;;4930495;29;20055;-78
2022/10/09 05:48:44;;;;;;;4.72;3.25;;;5.80;99.90;;;;;;4945265;28;20089;-76
2022/10/09 05:51:22;;;;;;;4.28;3.10;;;5.80;99.90;;;;;;4945652;28;20055;-78
2022/10/09 05:53:48;;;;;;;6.35;3.83;;;5.80;99.90;;;;;;4959100;28;20422;-77
2022/10/09 05:56:17;;;;;;;6.20;3.60;;;5.90;99.90;;;;;;4946631;28;20058;-78
2022/10/09 05:58:44;;;;;;;5.97;3.47;;;6.00;99.90;;;;;;4930982;28;20032;-79
2022/10/09 06:01:10;;;;;;;6.10;3.47;;;5.90;99.90;;;;;;4932132;28;20105;-77
2022/10/09 06:03:36;;;;;;;6.75;4.15;;;5.90;99.90;;;;;;4925613;28;20047;-77
2022/10/09 06:06:04;;;;;;;8.63;4.35;;;5.90;99.90;;;;;;4946367;28;20043;-77
2022/10/09 06:08:34;;;;;;;7.28;4.22;;;5.90;99.90;;;;;;4949202;28;20503;-78
2022/10/09 06:11:15;;;;;;;7.50;4.18;;;6.00;99.90;;;;;;4927197;28;20130;-77
2022/10/09 06:13:42;;;;;;;5.47;3.95;;;6.00;99.90;;;;;;4941404;28;20043;-77
2022/10/09 06:16:10;;;;;;;6.85;3.65;;;6.00;99.90;;;;;;4943255;28;20054;-77
2022/10/09 06:18:36;;;;;;;2.85;2.53;;;6.00;99.90;;;;;;4941118;28;20153;-77
2022/10/09 06:21:02;;;;;;;4.00;2.90;;;6.00;99.90;;;;;;4943060;28;20031;-78
2022/10/09 06:23:28;;;;;;;4.95;2.80;;;6.00;99.90;;;;;;4948654;28;20053;-80
2022/10/09 06:25:56;;;;;;;36.58;4.35;;;5.90;99.90;;;;;;4948047;28;20068;-80
2022/10/09 06:28:22;;;;;;;17.45;2.92;;;5.90;99.90;;;;;;4951054;28;20035;-79
2022/10/09 06:30:48;;;;;;;3.40;2.75;;;5.90;99.90;;;;;;4949622;28;20379;-77
2022/10/09 06:33:14;;;;;;;4.10;3.38;;;5.90;99.90;;;;;;4928163;29;20569;-78
2022/10/09 06:35:40;;;;;;;4.40;3.30;;;5.90;99.90;;;;;;4944678;28;20134;-77
2022/10/09 06:38:05;;;;;;;4.18;3.42;;;6.00;99.90;;;;;;4927082;28;20454;-77
2022/10/09 06:40:37;;;;;;;6.15;3.60;;;6.00;99.90;;;;;;4947551;28;20249;-77
2022/10/09 06:43:03;;;;;;;7.20;3.50;;;6.00;99.90;;;;;;4949997;28;20047;-77
2022/10/09 06:45:30;;;;;;;4.90;3.40;;;6.10;99.90;;;;;;4946738;28;20043;-77
2022/10/09 06:47:56;;;;;;;5.20;3.60;;;6.10;99.90;;;;;;4953693;28;20089;-77
2022/10/09 06:50:22;;;;;;;4.28;3.88;;;6.10;99.90;;;;;;4931342;29;20406;-76
2022/10/09 06:52:48;;;;;;;5.03;3.65;;;6.20;99.90;;;;;;4944205;28;20065;-78
2022/10/09 06:55:14;;;;;;;4.65;3.88;;;6.20;99.90;;;;;;4925954;28;20067;-77
2022/10/09 06:57:39;;;;;;;5.95;4.40;;;6.30;99.90;;;;;;4950631;28;20098;-77
2022/10/09 07:00:06;;;;;;;8.45;4.57;;;6.30;99.90;;;;;;4945186;28;20192;-77
2022/10/09 07:02:32;;;;;;;11.13;6.85;;;6.40;99.90;;;;;;4943110;28;20045;-78
2022/10/09 07:04:57;;;;;;;11.95;7.30;;;6.40;99.90;;;;;;4945401;28;20048;-77
2022/10/09 07:07:23;;;;;;;8.27;5.82;;;6.50;99.90;;;;;;4946990;28;20047;-77
2022/10/09 07:09:49;;;;;;;8.15;5.10;;;6.50;99.90;;;;;;4948049;28;20047;-78
2022/10/09 07:12:14;;;;;;;7.47;5.50;;;6.50;99.90;;;;;;4928250;29;20047;-77
2022/10/09 07:14:40;;;;;;;8.43;5.20;;;6.60;99.90;;;;;;4940434;28;20091;-78
2022/10/09 07:17:05;;;;;;;10.82;5.82;;;6.60;99.90;;;;;;4928727;28;20214;-77
2022/10/09 07:19:31;;;;;;;12.02;6.63;;;6.70;99.90;;;;;;4943288;28;20035;-75
2022/10/09 07:21:56;;;;;;;9.18;7.05;;;6.70;99.90;;;;;;4946285;28;20406;-78
2022/10/09 07:24:24;;;;;;;11.50;6.93;;;6.80;99.90;;;;;;4947359;28;20051;-78
2022/10/09 07:27:00;;;;;;;7.30;6.55;;;6.80;99.90;;;;;;4926053;28;20062;-77
2022/10/09 07:29:26;;;;;;;12.45;9.35;;;6.90;99.90;;;;;;4936408;28;20410;-79
2022/10/09 07:31:52;;;;;;;18.35;11.35;;;7.00;99.90;;;;;;4941780;28;20039;-78
2022/10/09 07:34:18;;;;;;;13.98;10.52;;;7.10;99.90;;;;;;4933137;28;20047;-78
2022/10/09 07:36:46;;;;;;;15.85;9.63;;;7.10;99.90;;;;;;4925025;29;20063;-77
2022/10/09 07:39:17;;;;;;;17.98;11.95;;;7.20;99.90;;;;;;4939561;28;20047;-78
2022/10/09 07:41:43;;;;;;;14.63;11.20;;;7.30;99.90;;;;;;4927631;29;20043;-77
2022/10/09 07:44:14;;;;;;;18.20;12.65;;;7.30;99.90;;;;;;4941193;28;20054;-78
2022/10/09 07:46:39;;;;;;;18.20;12.93;;;7.30;99.90;;;;;;4929504;28;20047;-76
2022/10/09 07:49:07;;;;;;;20.50;12.98;;;7.40;99.90;;;;;;4925885;29;20066;-78
2022/10/09 07:51:40;;;;;;;19.35;13.43;;;7.40;99.90;;;;;;4928760;28;20580;-77
2022/10/09 07:54:08;;;;;;;15.88;11.45;;;7.50;99.90;;;;;;4944480;28;20044;-78
2022/10/09 07:56:37;;;;;;;26.00;9.95;;;7.60;99.90;;;;;;4929070;28;20043;-76
2022/10/09 07:59:05;;;;;;;23.40;12.98;;;7.70;99.90;;;;;;4942127;28;20141;-77
2022/10/09 08:01:32;;;;;;;18.15;13.60;;;7.80;99.90;;;;;;4941584;28;20102;-77
2022/10/09 08:03:59;;;;;;;22.02;13.90;;;7.80;99.90;;;;;;4945817;28;20061;-77
2022/10/09 08:06:25;;;;;;;23.92;15.48;;;7.90;99.90;;;;;;4943094;28;20134;-76
2022/10/09 08:08:52;;;;;;;20.67;12.63;;;8.00;99.90;;;;;;4946041;28;20067;-77
2022/10/09 08:11:19;;;;;;;24.50;16.13;;;8.10;99.90;;;;;;4947022;28;20062;-77
2022/10/09 08:13:46;;;;;;;30.88;17.48;;;8.20;99.90;;;;;;4932076;28;20039;-77
2022/10/09 08:16:12;;;;;;;29.05;17.10;;;8.30;99.90;;;;;;4943849;28;20054;-76
2022/10/09 08:18:38;;;;;;;21.88;14.20;;;8.40;99.90;;;;;;4944334;28;20043;-76
2022/10/09 08:21:10;;;;;;;26.55;17.13;;;8.50;99.90;;;;;;4941596;28;20051;-76
2022/10/09 08:23:35;;;;;;;26.27;17.40;;;8.60;99.90;;;;;;4933335;28;20035;-79
2022/10/09 08:26:02;;;;;;;24.17;16.98;;;8.70;99.90;;;;;;4952809;28;20541;-76
2022/10/09 08:28:28;;;;;;;23.92;15.82;;;8.70;99.90;;;;;;4933598;28;20115;-77
2022/10/09 08:30:53;;;;;;;28.10;15.15;;;8.80;99.90;;;;;;4933100;29;20561;-77
2022/10/09 08:33:22;;;;;;;24.10;16.08;;;8.90;99.90;;;;;;4929086;29;20058;-77
2022/10/09 08:35:49;;;;;;;25.25;15.63;;;9.00;99.90;;;;;;4947082;28;20542;-76
2022/10/09 08:38:15;;;;;;;22.23;14.82;;;9.10;99.90;;;;;;4938558;28;20138;-76
2022/10/09 08:41:00;;;;;;;21.83;15.60;;;9.20;99.90;;;;;;4942171;28;20047;-76
2022/10/09 08:43:33;;;;;;;22.08;13.68;;;9.30;99.90;;;;;;4918654;29;20049;-82
2022/10/09 08:46:03;;;;;;;25.92;15.95;;;9.40;99.90;;;;;;4942719;28;20499;-76
2022/10/09 08:48:38;;;;;;;26.70;15.07;;;9.50;99.90;;;;;;4927383;29;20047;-76
2022/10/09 08:51:08;;;;;;;23.90;14.48;;;9.60;99.90;;;;;;4954997;28;20040;-76
2022/10/09 08:54:04;;;;;;;20.67;13.13;;;9.60;99.90;;;;;;4942413;28;20035;-79
2022/10/09 08:56:32;;;;;;;26.27;14.18;;;9.80;99.90;;;;;;4945979;28;20047;-76
2022/10/09 08:58:57;;;;;;;26.95;12.52;;;9.90;99.90;;;;;;4951116;28;20712;-77
2022/10/09 09:01:49;;;;;;;21.27;12.63;;;10.00;99.90;;;;;;4946875;28;20126;-77
2022/10/09 09:04:29;;;;;;;20.13;13.00;;;10.10;99.90;;;;;;4947785;28;20047;-77
2022/10/09 09:07:22;;;;;;;21.33;12.57;;;10.20;99.90;;;;;;4961502;28;20307;-78
2022/10/09 09:10:01;;;;;;;21.80;11.15;;;10.40;99.90;;;;;;4968456;28;20968;-77
2022/10/09 09:12:40;;;;;;;18.48;9.93;;;10.50;99.90;;;;;;4935139;28;20055;-76
2022/10/09 09:15:23;;;;;;;19.50;9.57;;;10.70;99.90;;;;;;4939434;28;20405;-77
2022/10/09 09:18:08;;;;;;;18.35;9.60;;;10.70;99.90;;;;;;4929476;28;20075;-78
2022/10/09 09:20:55;;;;;;;20.05;8.55;;;10.80;99.90;;;;;;4921927;28;20576;-76
2022/10/09 09:23:27;;;;;;;14.18;7.32;;;10.90;99.90;;;;;;4897245;28;20067;-77
2022/10/09 09:25:54;;;;;;;17.33;7.65;;;11.10;99.90;;;;;;4946993;28;20044;-77
2022/10/09 09:28:27;;;;;;;12.65;6.32;;;11.20;99.90;;;;;;4930166;28;20226;-77
2022/10/09 09:31:01;;;;;;;18.05;6.82;;;11.30;99.90;;;;;;4945946;28;20046;-79
2022/10/09 09:33:53;;;;;;;12.10;6.63;;;11.40;99.90;;;;;;4944352;28;20050;-76
2022/10/09 09:36:39;;;;;;;13.30;6.10;;;11.50;99.90;;;;;;4959288;28;20066;-77
2022/10/09 09:39:08;;;;;;;13.90;5.63;;;11.60;99.90;;;;;;4926307;28;20031;-77
2022/10/09 09:41:34;;;;;;;13.38;5.82;;;11.70;99.90;;;;;;4944912;28;20127;-77
2022/10/09 09:43:59;;;;;;;16.48;6.00;;;11.80;99.90;;;;;;4943725;28;20133;-77
2022/10/09 09:46:33;;;;;;;13.48;6.18;;;11.90;99.90;;;;;;4946030;28;20047;-77
2022/10/09 09:48:59;;;;;;;16.13;5.40;;;12.00;99.90;;;;;;4943873;28;20145;-78
2022/10/09 09:51:28;;;;;;;11.15;4.80;;;12.10;99.90;;;;;;4932242;29;20055;-81
2022/10/09 09:54:00;;;;;;;9.88;4.10;;;12.10;99.90;;;;;;4940571;28;20043;-76
2022/10/09 09:56:41;;;;;;;11.15;4.55;;;12.20;99.90;;;;;;4945253;28;20043;-77
2022/10/09 09:59:23;;;;;;;12.55;4.30;;;12.30;99.90;;;;;;4962551;28;20134;-78
2022/10/09 10:02:02;;;;;;;15.02;4.57;;;12.40;99.90;;;;;;4949935;28;20066;-77
2022/10/09 10:04:28;;;;;;;13.70;4.65;;;12.50;99.90;;;;;;4945535;28;20046;-77
2022/10/09 10:06:54;;;;;;;13.75;5.03;;;12.60;99.90;;;;;;4945192;28;20043;-77
2022/10/09 10:09:20;;;;;;;11.05;4.43;;;12.60;99.90;;;;;;4949126;28;20062;-78
2022/10/09 10:12:04;;;;;;;14.73;4.78;;;12.70;99.90;;;;;;4944774;28;20055;-77
2022/10/09 10:14:31;;;;;;;12.98;4.80;;;12.80;99.90;;;;;;4931416;29;20050;-77
2022/10/09 10:16:59;;;;;;;12.20;4.28;;;12.90;99.90;;;;;;4947136;28;20074;-79
2022/10/09 10:19:28;;;;;;;13.77;4.30;;;13.00;99.90;;;;;;4948762;28;20101;-82
2022/10/09 10:22:04;;;;;;;15.20;4.70;;;13.00;99.90;;;;;;4942201;28;20050;-77
2022/10/09 10:24:38;;;;;;;12.00;4.70;;;13.10;99.90;;;;;;4947243;28;20178;-79
2022/10/09 10:27:24;;;;;;;15.77;5.07;;;13.20;99.90;;;;;;4948113;28;20054;-77
2022/10/09 10:29:55;;;;;;;13.98;4.72;;;13.30;99.90;;;;;;4934774;29;20074;-77
2022/10/09 10:32:49;;;;;;;17.60;5.40;;;13.50;99.90;;;;;;4947374;28;20047;-77
2022/10/09 10:35:19;;;;;;;15.93;4.93;;;13.60;99.90;;;;;;4960467;28;20134;-78
2022/10/09 10:37:54;;;;;;;14.43;5.00;;;13.80;99.90;;;;;;4947211;28;20091;-78
2022/10/09 10:40:29;;;;;;;15.07;4.95;;;13.90;99.90;;;;;;4942334;28;20048;-78
2022/10/09 10:43:02;;;;;;;15.82;5.47;;;14.10;99.90;;;;;;4944850;28;21885;-78
2022/10/09 10:45:58;;;;;;;15.02;5.25;;;14.30;99.90;;;;;;4926629;28;20094;-77
2022/10/09 10:48:38;;;;;;;13.20;4.75;;;14.50;99.90;;;;;;4942683;28;20102;-78
2022/10/09 10:51:35;;;;;;;11.75;4.30;;;14.70;99.90;;;;;;4945308;28;20058;-77
2022/10/09 10:54:18;;;;;;;10.82;4.18;;;14.80;99.90;;;;;;4927461;29;20051;-78
2022/10/09 10:56:55;;;;;;;9.45;3.70;;;15.00;99.90;;;;;;4931835;28;20047;-76
2022/10/09 11:00:04;;;;;;;10.15;3.78;;;15.20;99.90;;;;;;4944168;28;20054;-77
2022/10/09 11:02:54;;;;;;;15.02;3.67;;;15.50;99.90;;;;;;4949829;28;20054;-77
2022/10/09 11:05:26;;;;;;;11.90;3.65;;;15.70;99.90;;;;;;4945301;28;20047;-78
2022/10/09 11:08:23;;;;;;;11.85;3.58;;;15.90;99.90;;;;;;4948353;28;20047;-78
2022/10/09 11:11:03;;;;;;;12.65;4.40;;;16.10;99.90;;;;;;4942926;28;20191;-81
2022/10/09 11:13:52;;;;;;;9.63;3.97;;;16.30;99.90;;;;;;4961365;28;20051;-78
2022/10/09 11:16:42;;;;;;;9.35;3.45;;;16.60;99.90;;;;;;4944897;28;20051;-77
2022/10/09 11:19:24;;;;;;;11.80;3.90;;;16.70;99.90;;;;;;4932954;29;20043;-78
2022/10/09 11:22:01;;;;;;;11.55;4.13;;;17.00;99.90;;;;;;4968365;28;20046;-78
2022/10/09 11:24:39;;;;;;;10.05;4.13;;;17.10;99.90;;;;;;4943961;28;20086;-79
2022/10/09 11:27:23;;;;;;;14.82;4.25;;;17.10;99.90;;;;;;4932986;28;20142;-74
2022/10/09 11:30:00;;;;;;;11.63;4.22;;;17.20;99.90;;;;;;4933315;29;20047;-77
2022/10/09 11:32:31;;;;;;;9.32;3.72;;;17.30;99.90;;;;;;4945878;28;20061;-78
2022/10/09 11:35:10;;;;;;;12.80;3.78;;;17.50;99.90;;;;;;4946776;28;20102;-78
2022/10/09 11:37:38;;;;;;;13.85;4.10;;;17.50;99.90;;;;;;4944534;28;20130;-77
2022/10/09 11:40:35;;;;;;;12.57;4.10;;;17.60;99.90;;;;;;4945672;28;20081;-77
2022/10/09 11:43:21;;;;;;;11.60;4.70;;;17.70;99.90;;;;;;4942168;28;20039;-77
2022/10/09 11:45:55;;;;;;;10.18;4.15;;;17.80;99.90;;;;;;4928706;28;20450;-78
2022/10/09 11:48:30;;;;;;;13.30;4.25;;;18.00;99.90;;;;;;4945641;28;20126;-77
2022/10/09 11:51:09;;;;;;;11.35;4.03;;;18.20;99.90;;;;;;4943855;28;20039;-77
2022/10/09 11:53:36;;;;;;;9.52;4.13;;;18.20;99.90;;;;;;4946233;28;20039;-77
2022/10/09 11:56:07;;;;;;;11.25;5.03;;;18.30;99.90;;;;;;4948262;28;20169;-77
2022/10/09 11:58:34;;;;;;;11.87;4.47;;;18.40;99.90;;;;;;4946145;28;20050;-78
2022/10/09 12:01:21;;;;;;;10.77;4.10;;;18.60;99.90;;;;;;4946015;28;20497;-77
2022/10/09 12:04:03;;;;;;;14.57;4.90;;;18.70;99.20;;;;;;4949426;28;20040;-77
2022/10/09 12:06:30;;;;;;;11.80;4.87;;;18.90;99.20;;;;;;4946523;28;20106;-77
2022/10/09 12:09:00;;;;;;;8.40;3.97;;;18.80;96.70;;;;;;4950784;28;20303;-77
2022/10/09 12:11:27;;;;;;;9.35;3.90;;;18.80;97.40;;;;;;4965364;28;20035;-77
2022/10/09 12:13:56;;;;;;;12.70;4.18;;;18.80;96.60;;;;;;4932465;28;20082;-77
2022/10/09 12:16:30;;;;;;;9.63;3.88;;;18.80;95.80;;;;;;4947908;28;20051;-77
2022/10/09 12:18:58;;;;;;;13.63;4.18;;;18.80;96.00;;;;;;4948066;28;20043;-76
2022/10/09 12:21:27;;;;;;;10.20;3.60;;;18.80;95.10;;;;;;4946554;28;20043;-75
2022/10/09 12:23:54;;;;;;;7.78;3.38;;;18.80;93.70;;;;;;4946081;28;20055;-78
2022/10/09 12:26:22;;;;;;;10.63;4.10;;;18.70;96.20;;;;;;4948167;28;20082;-77
2022/10/09 12:28:52;;;;;;;12.77;4.30;;;18.90;96.30;;;;;;4945295;28;20043;-77
2022/10/09 12:31:24;;;;;;;11.55;3.67;;;19.10;97.00;;;;;;4946492;28;20070;-77
2022/10/09 12:34:01;;;;;;;10.05;3.42;;;19.30;95.80;;;;;;4927378;28;20043;-78
2022/10/09 12:36:30;;;;;;;9.70;3.47;;;19.40;93.90;;;;;;4959103;28;20487;-77
2022/10/09 12:38:55;;;;;;;9.77;3.53;;;19.60;94.50;;;;;;4945739;28;20086;-77
2022/10/09 12:41:33;;;;;;;9.60;3.10;;;19.80;93.50;;;;;;4950348;28;20036;-78
2022/10/09 12:44:00;;;;;;;10.68;3.17;;;20.00;91.30;;;;;;4945237;28;20055;-76
2022/10/09 12:46:32;;;;;;;8.82;3.40;;;20.10;93.00;;;;;;4945356;28;20058;-77
2022/10/09 12:48:59;;;;;;;11.82;3.78;;;20.30;92.60;;;;;;4944128;28;20063;-80
2022/10/09 12:51:26;;;;;;;8.43;3.15;;;20.40;91.80;;;;;;4943851;28;20050;-77
2022/10/09 12:53:53;;;;;;;9.02;3.33;;;20.40;91.70;;;;;;4947591;28;20172;-78
2022/10/09 12:56:28;;;;;;;8.90;2.85;;;20.60;91.10;;;;;;4929238;29;20048;-77
2022/10/09 12:58:55;;;;;;;5.53;2.55;;;20.70;87.00;;;;;;4930946;28;20043;-78
2022/10/09 13:01:24;;;;;;;12.43;2.90;;;20.90;89.80;;;;;;4937733;28;20140;-78
2022/10/09 13:03:59;;;;;;;9.88;2.65;;;21.00;90.10;;;;;;4940057;28;20036;-79